Time;durP1;ratioP1;P1;durP2;ratioP2;P2;SDS_P1;SDS_P2;PMS_P1;PMS_P2;Temp;Humidity;BMP_temperature;BMP_pressure;BME280_temperature;BME280_humidity;BME280_pressure;Samples;Min_cycle;Max_cycle;Signal;HPM_P1;HPM_P2
2023/01/06 00:00:32;;;;;;;3.17;1.63;;;20.70;56.60;;;;;;6085394;23;20025;-62
2023/01/06 00:02:58;;;;;;;4.00;2.03;;;20.70;56.60;;;;;;6086652;23;20018;-62
2023/01/06 00:05:24;;;;;;;2.88;1.90;;;20.70;56.60;;;;;;6087603;23;20045;-62
2023/01/06 00:07:51;;;;;;;2.25;1.63;;;20.70;56.50;;;;;;6086568;23;20026;-63
2023/01/06 00:10:17;;;;;;;1.88;1.67;;;20.70;56.50;;;;;;6086898;23;20037;-62
2023/01/06 00:12:44;;;;;;;3.78;2.38;;;20.70;56.50;;;;;;6085373;23;20026;-63
2023/01/06 00:15:10;;;;;;;2.70;1.65;;;20.70;56.50;;;;;;6085326;23;20029;-62
2023/01/06 00:17:36;;;;;;;1.85;1.42;;;20.70;56.50;;;;;;6060458;23;20014;-62
2023/01/06 00:20:03;;;;;;;3.50;1.80;;;20.70;56.50;;;;;;6085781;23;20065;-62
2023/01/06 00:22:28;;;;;;;2.03;1.50;;;20.70;56.40;;;;;;6060346;23;20029;-62
2023/01/06 00:24:54;;;;;;;2.90;1.58;;;20.70;56.40;;;;;;6085866;23;20081;-62
2023/01/06 00:27:20;;;;;;;2.67;1.33;;;20.70;56.40;;;;;;6084855;23;20338;-62
2023/01/06 00:29:48;;;;;;;3.55;1.55;;;20.70;56.40;;;;;;6085948;23;20021;-62
2023/01/06 00:32:14;;;;;;;2.13;1.50;;;20.60;56.30;;;;;;6084839;23;20038;-62
2023/01/06 00:34:40;;;;;;;3.05;1.60;;;20.60;56.40;;;;;;6062047;23;20018;-63
2023/01/06 00:37:05;;;;;;;2.60;1.23;;;20.60;56.30;;;;;;6086214;23;20018;-62
2023/01/06 00:39:31;;;;;;;2.65;1.35;;;20.60;56.30;;;;;;6084559;23;20026;-62
2023/01/06 00:42:02;;;;;;;2.50;1.40;;;20.60;56.30;;;;;;6059731;23;20023;-62
2023/01/06 00:44:32;;;;;;;2.08;1.15;;;20.60;56.30;;;;;;6085166;23;20022;-62
2023/01/06 00:46:58;;;;;;;1.67;1.20;;;20.60;56.20;;;;;;6086016;23;20026;-62
2023/01/06 00:49:24;;;;;;;2.45;1.10;;;20.60;56.20;;;;;;6087163;23;20018;-62
2023/01/06 00:51:50;;;;;;;2.40;1.30;;;20.60;56.20;;;;;;6084459;23;20026;-63
2023/01/06 00:54:16;;;;;;;3.60;1.13;;;20.60;56.30;;;;;;6085559;23;20021;-62
2023/01/06 00:56:45;;;;;;;2.58;1.52;;;20.60;56.20;;;;;;6083908;23;20018;-63
2023/01/06 00:59:13;;;;;;;3.28;1.55;;;20.60;56.20;;;;;;6084867;23;20018;-63
2023/01/06 01:01:40;;;;;;;1.58;1.17;;;20.60;56.20;;;;;;6086858;23;20052;-62
2023/01/06 01:04:07;;;;;;;2.30;1.30;;;20.60;56.20;;;;;;6061749;23;20344;-61
2023/01/06 01:06:33;;;;;;;2.03;1.40;;;20.50;56.10;;;;;;6084761;23;20018;-62
2023/01/06 01:08:59;;;;;;;2.15;1.48;;;20.50;56.10;;;;;;6084703;23;20026;-63
2023/01/06 01:14:11;;;;;;;2.35;1.20;;;20.50;56.10;;;;;;6086796;23;20015;-63
2023/01/06 01:16:38;;;;;;;2.47;1.17;;;20.50;56.00;;;;;;6084216;23;20046;-62
2023/01/06 01:19:04;;;;;;;2.55;1.20;;;20.50;56.00;;;;;;6085999;23;20026;-63
2023/01/06 01:21:30;;;;;;;1.33;1.20;;;20.50;56.00;;;;;;6058643;23;20025;-62
2023/01/06 01:23:56;;;;;;;1.73;1.13;;;20.50;55.90;;;;;;6085976;23;20086;-62
2023/01/06 01:26:21;;;;;;;3.00;1.30;;;20.50;56.00;;;;;;6084756;23;20090;-62
2023/01/06 01:28:47;;;;;;;1.48;1.00;;;20.50;56.00;;;;;;6084296;23;20609;-62
2023/01/06 01:31:14;;;;;;;2.20;1.10;;;20.50;56.00;;;;;;6084645;23;20033;-62
2023/01/06 01:33:41;;;;;;;3.25;1.30;;;20.50;56.10;;;;;;6086993;23;20102;-62
2023/01/06 01:36:08;;;;;;;1.90;1.20;;;20.50;56.00;;;;;;6085654;23;20015;-62
2023/01/06 01:38:34;;;;;;;2.42;1.20;;;20.50;56.00;;;;;;6084589;23;20045;-62
2023/01/06 01:41:00;;;;;;;1.13;1.00;;;20.50;55.90;;;;;;6083739;23;20019;-62
2023/01/06 01:43:45;;;;;;;1.70;1.00;;;20.50;56.00;;;;;;6083913;23;20117;-62
2023/01/06 01:46:15;;;;;;;2.03;1.10;;;20.50;55.80;;;;;;6086439;23;20279;-63
2023/01/06 01:48:41;;;;;;;1.75;1.10;;;20.50;56.00;;;;;;6086010;23;20022;-62
2023/01/06 01:51:11;;;;;;;1.17;0.95;;;20.40;55.80;;;;;;6085613;23;20085;-63
2023/01/06 01:53:44;;;;;;;1.80;1.13;;;20.40;55.90;;;;;;6086815;23;20065;-62
2023/01/06 01:56:13;;;;;;;2.05;1.15;;;20.40;55.90;;;;;;6061404;23;20019;-61
2023/01/06 01:58:44;;;;;;;3.25;1.13;;;20.40;55.90;;;;;;6086335;23;20028;-62
2023/01/06 02:01:11;;;;;;;1.63;0.70;;;20.40;55.90;;;;;;6087121;23;20065;-63
2023/01/06 02:03:39;;;;;;;1.20;1.05;;;20.40;55.90;;;;;;6060766;23;20062;-62
2023/01/06 02:06:09;;;;;;;2.30;1.13;;;20.40;55.90;;;;;;6083221;23;20018;-62
2023/01/06 02:08:39;;;;;;;1.87;0.97;;;20.40;55.80;;;;;;6085482;23;20387;-62
2023/01/06 02:11:05;;;;;;;1.10;0.80;;;20.40;55.90;;;;;;6085760;23;20022;-62
2023/01/06 02:13:33;;;;;;;1.13;0.80;;;20.40;55.80;;;;;;6060763;23;20913;-62
2023/01/06 02:16:19;;;;;;;2.15;0.90;;;20.40;55.80;;;;;;6086157;23;20383;-63
2023/01/06 02:19:20;;;;;;;2.25;0.98;;;20.40;55.70;;;;;;6086734;23;20018;-62
2023/01/06 02:21:59;;;;;;;0.77;0.75;;;20.40;55.70;;;;;;6082033;23;20018;-62
2023/01/06 02:24:52;;;;;;;1.55;0.75;;;20.40;55.70;;;;;;6088742;23;20018;-62
2023/01/06 02:27:34;;;;;;;2.50;1.15;;;20.40;55.70;;;;;;6086663;23;20017;-62
2023/01/06 02:30:24;;;;;;;1.52;0.85;;;20.30;55.70;;;;;;6085521;23;20407;-62
2023/01/06 02:33:26;;;;;;;1.23;0.82;;;20.30;55.60;;;;;;6088060;23;20041;-63
2023/01/06 02:36:09;;;;;;;1.85;0.82;;;20.40;55.70;;;;;;5952152;23;20023;-62
2023/01/06 02:39:04;;;;;;;1.38;0.88;;;20.30;55.70;;;;;;6099882;23;20018;-62
2023/01/06 02:41:39;;;;;;;1.30;0.90;;;20.30;55.60;;;;;;6087696;23;20022;-62
2023/01/06 02:44:22;;;;;;;1.13;0.75;;;20.30;55.60;;;;;;6086228;23;20022;-62
2023/01/06 02:47:15;;;;;;;2.33;1.00;;;20.30;55.50;;;;;;6087873;23;20370;-62
2023/01/06 02:49:56;;;;;;;0.98;0.73;;;20.30;55.50;;;;;;6088349;23;20065;-62
2023/01/06 02:52:45;;;;;;;1.30;0.90;;;20.30;55.50;;;;;;6087751;23;20088;-62
2023/01/06 02:55:43;;;;;;;2.13;1.00;;;20.30;55.50;;;;;;6087081;23;20690;-62
2023/01/06 02:58:14;;;;;;;2.55;0.80;;;20.30;55.50;;;;;;6086893;23;20025;-62
2023/01/06 03:00:56;;;;;;;1.80;0.80;;;20.30;55.50;;;;;;6087150;23;20656;-62
2023/01/06 03:03:25;;;;;;;1.63;0.95;;;20.30;55.60;;;;;;6085843;23;20014;-62
2023/01/06 03:05:54;;;;;;;1.67;0.73;;;20.30;55.50;;;;;;6087527;23;20126;-62
2023/01/06 03:08:25;;;;;;;1.17;0.80;;;20.30;55.50;;;;;;6087582;23;20491;-62
2023/01/06 03:10:52;;;;;;;2.03;1.15;;;20.30;55.50;;;;;;6087662;23;20024;-62
2023/01/06 03:13:40;;;;;;;1.23;0.70;;;20.30;55.50;;;;;;6085329;23;20018;-62
2023/01/06 03:16:06;;;;;;;1.30;0.82;;;20.30;55.40;;;;;;6087770;23;20186;-62
2023/01/06 03:18:32;;;;;;;2.10;0.80;;;20.20;55.40;;;;;;6084106;23;20034;-62
2023/01/06 03:21:03;;;;;;;1.42;0.70;;;20.20;55.50;;;;;;6085579;23;20045;-62
2023/01/06 03:23:28;;;;;;;0.70;0.68;;;20.20;55.40;;;;;;6086977;23;20014;-62
2023/01/06 03:25:54;;;;;;;2.25;0.90;;;20.20;55.40;;;;;;6086229;23;20017;-57
2023/01/06 03:28:20;;;;;;;1.98;0.80;;;20.20;55.40;;;;;;6086327;23;20486;-62
2023/01/06 03:30:57;;;;;;;0.95;0.60;;;20.20;55.40;;;;;;6085655;23;20022;-62
2023/01/06 03:33:46;;;;;;;0.80;0.77;;;20.20;55.40;;;;;;6087147;23;20022;-62
2023/01/06 03:36:39;;;;;;;1.23;0.75;;;20.20;55.30;;;;;;6066038;23;20018;-63
2023/01/06 03:39:15;;;;;;;1.05;0.73;;;20.20;55.30;;;;;;6087440;23;20335;-62
2023/01/06 03:45:10;;;;;;;0.98;0.50;;;20.20;55.30;;;;;;6087488;23;20030;-62
2023/01/06 03:47:55;;;;;;;1.15;0.77;;;20.20;55.20;;;;;;6085326;23;20073;-62
2023/01/06 03:50:44;;;;;;;1.05;0.70;;;20.20;55.20;;;;;;6087285;23;20049;-62
2023/01/06 03:53:37;;;;;;;1.20;0.80;;;20.10;55.20;;;;;;6084730;23;20021;-63
2023/01/06 03:56:21;;;;;;;0.93;0.60;;;20.20;55.20;;;;;;6085765;23;20075;-62
2023/01/06 03:58:53;;;;;;;1.38;0.73;;;20.10;55.20;;;;;;6084612;23;20022;-62
2023/01/06 04:01:20;;;;;;;0.60;0.57;;;20.20;55.30;;;;;;6086537;23;20061;-63
2023/01/06 04:03:47;;;;;;;1.45;0.90;;;20.10;55.20;;;;;;6084994;23;20021;-62
2023/01/06 04:06:12;;;;;;;0.70;0.60;;;20.10;55.30;;;;;;6085680;23;20347;-63
2023/01/06 04:08:38;;;;;;;0.80;0.75;;;20.10;55.20;;;;;;6084903;23;20021;-62
2023/01/06 04:11:04;;;;;;;0.70;0.60;;;20.10;55.20;;;;;;6087693;23;20315;-63
2023/01/06 04:13:29;;;;;;;0.93;0.80;;;20.10;55.20;;;;;;6086647;23;20861;-62
2023/01/06 04:15:55;;;;;;;5.35;0.82;;;20.10;55.20;;;;;;6087362;23;20015;-63
2023/01/06 04:18:21;;;;;;;1.50;0.77;;;20.10;55.10;;;;;;6085042;23;20053;-63
2023/01/06 04:20:46;;;;;;;1.20;0.70;;;20.10;55.20;;;;;;6085679;23;20451;-62
2023/01/06 04:23:12;;;;;;;1.40;0.70;;;20.10;55.10;;;;;;6085238;23;20028;-62
2023/01/06 04:25:38;;;;;;;0.95;0.85;;;20.10;55.10;;;;;;6087842;23;20085;-62
2023/01/06 04:28:03;;;;;;;1.30;0.95;;;20.10;55.10;;;;;;6086909;23;20018;-62
2023/01/06 04:30:29;;;;;;;2.40;1.15;;;20.10;55.10;;;;;;6087480;23;20052;-62
2023/01/06 04:32:55;;;;;;;1.73;0.70;;;20.10;55.10;;;;;;6086305;23;20022;-62
2023/01/06 04:35:20;;;;;;;1.48;1.17;;;20.10;55.10;;;;;;6086950;23;20018;-63
2023/01/06 04:37:46;;;;;;;1.00;0.75;;;20.10;55.10;;;;;;6085774;23;20010;-63
2023/01/06 04:40:12;;;;;;;1.10;0.80;;;20.10;55.10;;;;;;6085505;23;20101;-62
2023/01/06 04:45:21;;;;;;;0.57;0.50;;;20.10;55.00;;;;;;6085804;23;20109;-62
2023/01/06 04:47:47;;;;;;;1.00;0.88;;;20.10;55.00;;;;;;6086679;23;20050;-62
2023/01/06 04:50:13;;;;;;;0.90;0.70;;;20.10;55.00;;;;;;6087032;23;20374;-62
2023/01/06 04:52:38;;;;;;;1.25;0.70;;;20.10;55.00;;;;;;6086803;23;20010;-62
2023/01/06 04:55:04;;;;;;;0.77;0.60;;;20.10;55.00;;;;;;6086802;23;20014;-62
2023/01/06 04:57:30;;;;;;;0.85;0.73;;;20.10;55.00;;;;;;6086766;23;20010;-62
2023/01/06 04:59:55;;;;;;;1.13;0.70;;;20.00;54.90;;;;;;6085047;23;20090;-61
2023/01/06 05:02:21;;;;;;;1.10;0.70;;;20.00;54.90;;;;;;6085418;23;20479;-62
2023/01/06 05:04:47;;;;;;;0.57;0.57;;;20.00;54.90;;;;;;6085544;23;20075;-62
2023/01/06 05:07:12;;;;;;;0.95;0.75;;;20.00;54.90;;;;;;6086568;23;20014;-62
2023/01/06 05:09:38;;;;;;;1.05;0.70;;;20.00;54.90;;;;;;6084771;23;20066;-62
2023/01/06 05:12:04;;;;;;;0.60;0.60;;;20.00;54.80;;;;;;6084567;23;20022;-64
2023/01/06 05:14:29;;;;;;;0.60;0.60;;;20.00;54.80;;;;;;6086551;23;20022;-62
2023/01/06 05:16:55;;;;;;;0.70;0.60;;;20.00;54.80;;;;;;6086979;23;20085;-62
2023/01/06 05:19:21;;;;;;;0.77;0.70;;;20.00;54.80;;;;;;6087028;23;20046;-62
2023/01/06 05:21:46;;;;;;;0.60;0.55;;;20.00;54.80;;;;;;6087260;23;20019;-64
2023/01/06 05:24:12;;;;;;;1.17;0.70;;;20.00;54.80;;;;;;6087361;23;20443;-66
2023/01/06 05:26:38;;;;;;;0.98;0.52;;;20.00;54.80;;;;;;6085311;23;20015;-67
2023/01/06 05:29:03;;;;;;;1.15;0.80;;;20.00;54.70;;;;;;6058006;23;20026;-64
2023/01/06 05:31:29;;;;;;;1.25;0.50;;;20.00;54.70;;;;;;6056659;23;20482;-63
2023/01/06 05:33:54;;;;;;;0.65;0.52;;;20.00;54.70;;;;;;6084504;23;20642;-63
2023/01/06 05:36:20;;;;;;;0.90;0.60;;;20.00;54.70;;;;;;6084893;23;20093;-63
2023/01/06 05:38:51;;;;;;;1.25;0.65;;;20.00;54.70;;;;;;6083765;23;20510;-62
2023/01/06 05:41:17;;;;;;;0.93;0.60;;;20.00;54.80;;;;;;6084298;23;20024;-63
2023/01/06 05:43:43;;;;;;;1.23;0.70;;;20.00;54.90;;;;;;6085291;23;20413;-62
2023/01/06 05:46:10;;;;;;;0.55;0.55;;;20.00;54.80;;;;;;6086966;23;20479;-62
2023/01/06 05:48:37;;;;;;;0.73;0.55;;;20.00;54.80;;;;;;6086802;23;20094;-62
2023/01/06 05:51:05;;;;;;;1.13;0.70;;;20.00;54.80;;;;;;6085549;23;20014;-63
2023/01/06 05:53:33;;;;;;;1.00;0.60;;;20.00;54.70;;;;;;6086104;23;20015;-62
2023/01/06 05:56:00;;;;;;;1.08;0.60;;;20.00;54.70;;;;;;6087215;23;20046;-62
2023/01/06 05:58:26;;;;;;;1.17;0.88;;;20.00;54.60;;;;;;6088214;23;20022;-64
2023/01/06 06:00:51;;;;;;;1.15;0.73;;;19.90;54.70;;;;;;6088908;23;20010;-63
2023/01/06 06:03:17;;;;;;;0.73;0.60;;;20.00;54.70;;;;;;6087612;23;20451;-63
2023/01/06 06:05:43;;;;;;;1.13;0.90;;;19.90;54.70;;;;;;6086681;23;20023;-62
2023/01/06 06:08:08;;;;;;;0.85;0.60;;;19.90;54.70;;;;;;6087956;23;20037;-62
2023/01/06 06:10:34;;;;;;;0.60;0.60;;;19.90;54.70;;;;;;6086680;23;20549;-63
2023/01/06 06:12:59;;;;;;;2.10;0.55;;;19.90;54.70;;;;;;6086315;23;20029;-63
2023/01/06 06:15:25;;;;;;;1.08;0.50;;;19.90;55.40;;;;;;6088051;23;20018;-63
2023/01/06 06:17:50;;;;;;;1.42;0.60;;;19.90;54.70;;;;;;6085590;23;20018;-63
2023/01/06 06:20:16;;;;;;;1.85;0.60;;;19.90;54.70;;;;;;6088034;23;20431;-62
2023/01/06 06:22:42;;;;;;;1.50;0.60;;;19.90;54.60;;;;;;6086083;23;20019;-63
2023/01/06 06:25:08;;;;;;;2.10;0.50;;;19.90;54.60;;;;;;6086554;23;20014;-63
2023/01/06 06:27:33;;;;;;;1.85;0.82;;;19.90;54.60;;;;;;6087242;23;20015;-62
2023/01/06 06:29:59;;;;;;;1.20;0.40;;;19.90;54.70;;;;;;6088501;23;20138;-63
2023/01/06 06:32:28;;;;;;;2.72;0.60;;;19.90;54.60;;;;;;6085583;23;20018;-63
2023/01/06 06:34:53;;;;;;;1.65;0.68;;;19.90;54.60;;;;;;6086518;23;20274;-64
2023/01/06 06:37:19;;;;;;;2.15;0.60;;;19.90;54.60;;;;;;6084735;23;20022;-63
2023/01/06 06:39:45;;;;;;;0.50;0.50;;;19.90;54.60;;;;;;6088541;23;20474;-63
2023/01/06 06:42:10;;;;;;;1.15;0.63;;;19.90;54.60;;;;;;6085165;23;20026;-63
2023/01/06 06:44:36;;;;;;;0.77;0.60;;;19.90;54.70;;;;;;6086292;23;20041;-62
2023/01/06 06:47:02;;;;;;;2.33;0.70;;;19.80;54.60;;;;;;6085988;23;20117;-63
2023/01/06 06:49:27;;;;;;;1.00;0.50;;;19.80;54.60;;;;;;6086052;23;20026;-63
2023/01/06 06:51:53;;;;;;;0.88;0.60;;;19.80;54.60;;;;;;6086424;23;20022;-63
2023/01/06 06:54:18;;;;;;;0.85;0.73;;;19.80;54.60;;;;;;6087730;23;20463;-60
2023/01/06 06:56:44;;;;;;;1.10;0.63;;;19.80;54.60;;;;;;6087840;23;20018;-62
2023/01/06 06:59:10;;;;;;;0.60;0.60;;;19.80;54.70;;;;;;6086270;23;20263;-63
2023/01/06 07:01:35;;;;;;;1.27;0.88;;;19.80;54.60;;;;;;6086536;23;20016;-63
2023/01/06 07:04:01;;;;;;;2.63;0.98;;;19.80;54.50;;;;;;6086695;23;20097;-63
2023/01/06 07:06:27;;;;;;;2.58;0.77;;;19.80;54.60;;;;;;6087737;23;20019;-63
2023/01/06 07:08:53;;;;;;;1.88;0.50;;;19.80;54.60;;;;;;6085877;23;20128;-63
2023/01/06 07:11:19;;;;;;;1.33;0.60;;;19.80;54.60;;;;;;6087983;23;20018;-62
2023/01/06 07:13:46;;;;;;;1.15;0.77;;;19.80;54.60;;;;;;6087251;23;20047;-63
2023/01/06 07:16:11;;;;;;;1.58;0.60;;;19.80;54.60;;;;;;6087677;23;20057;-63
2023/01/06 07:18:38;;;;;;;3.20;0.63;;;19.80;54.80;;;;;;6086958;23;20022;-63
2023/01/06 07:21:04;;;;;;;0.80;0.80;;;19.80;54.60;;;;;;6087804;23;20784;-62
2023/01/06 07:23:31;;;;;;;2.42;0.90;;;19.80;54.70;;;;;;6061192;23;20446;-62
2023/01/06 07:25:59;;;;;;;2.58;0.88;;;19.80;54.70;;;;;;6086100;23;20022;-63
2023/01/06 07:28:26;;;;;;;1.98;0.65;;;19.80;54.60;;;;;;6085410;23;20025;-63
2023/01/06 07:30:52;;;;;;;3.67;0.68;;;19.80;54.60;;;;;;6087482;23;20018;-62
2023/01/06 07:33:18;;;;;;;0.77;0.68;;;19.80;54.60;;;;;;6086312;23;20018;-63
2023/01/06 07:35:44;;;;;;;1.17;0.70;;;19.80;54.60;;;;;;6087940;23;20050;-63
2023/01/06 07:38:10;;;;;;;9.98;1.13;;;19.80;54.70;;;;;;6060768;23;20052;-63
2023/01/06 07:40:36;;;;;;;3.53;0.60;;;20.00;54.60;;;;;;6060792;23;20049;-63
2023/01/06 07:43:06;;;;;;;2.47;0.63;;;20.50;54.30;;;;;;6084110;23;20010;-63
2023/01/06 07:45:32;;;;;;;1.83;0.45;;;21.30;52.10;;;;;;6086470;23;20018;-63
2023/01/06 07:47:58;;;;;;;2.35;0.50;;;22.00;50.70;;;;;;6060769;23;20052;-63
2023/01/06 07:50:24;;;;;;;2.10;0.68;;;22.50;49.50;;;;;;6035302;23;20424;-64
2023/01/06 07:52:50;;;;;;;1.70;0.50;;;22.90;48.80;;;;;;6084065;23;20022;-65
2023/01/06 07:55:16;;;;;;;3.80;0.77;;;23.00;48.40;;;;;;6060123;23;20092;-65
2023/01/06 07:57:42;;;;;;;2.15;0.50;;;23.00;48.30;;;;;;6059124;23;20018;-65
2023/01/06 08:00:08;;;;;;;2.95;0.50;;;23.00;48.40;;;;;;6086525;23;20482;-64
2023/01/06 08:02:33;;;;;;;0.55;0.40;;;22.90;48.70;;;;;;6059441;23;20022;-65
2023/01/06 08:04:59;;;;;;;2.05;0.50;;;22.80;48.80;;;;;;6084984;23;20025;-65
2023/01/06 08:07:25;;;;;;;0.60;0.50;;;22.80;48.80;;;;;;6083352;23;20486;-65
2023/01/06 08:09:50;;;;;;;0.73;0.50;;;22.70;49.10;;;;;;6061351;23;20014;-65
2023/01/06 08:12:16;;;;;;;1.00;0.68;;;22.50;49.50;;;;;;6084481;23;20428;-65
2023/01/06 08:14:42;;;;;;;3.33;0.50;;;22.40;49.80;;;;;;6087134;23;20023;-65
2023/01/06 08:17:07;;;;;;;2.88;0.65;;;22.30;50.10;;;;;;6084303;23;20022;-65
2023/01/06 08:19:33;;;;;;;0.75;0.35;;;22.20;50.20;;;;;;6086247;23;20097;-65
2023/01/06 08:21:59;;;;;;;1.67;0.45;;;22.10;50.40;;;;;;6085886;23;20025;-65
2023/01/06 08:24:24;;;;;;;1.75;0.50;;;22.10;50.50;;;;;;6060753;23;20057;-64
2023/01/06 08:26:50;;;;;;;1.45;0.60;;;22.00;50.60;;;;;;6084411;23;20021;-64
2023/01/06 08:29:16;;;;;;;1.27;0.40;;;22.00;50.70;;;;;;6084336;23;20015;-65
2023/01/06 08:31:41;;;;;;;1.38;0.77;;;22.00;50.80;;;;;;6084390;23;20022;-65
2023/01/06 08:34:07;;;;;;;0.82;0.47;;;22.00;50.80;;;;;;6083903;23;20033;-65
2023/01/06 08:36:33;;;;;;;2.55;0.60;;;22.00;50.80;;;;;;6084295;23;20014;-65
2023/01/06 08:38:58;;;;;;;0.95;0.50;;;22.00;50.80;;;;;;6084793;23;20086;-65
2023/01/06 08:41:24;;;;;;;2.22;0.55;;;22.00;50.80;;;;;;6082830;23;20022;-65
2023/01/06 08:43:50;;;;;;;1.27;0.60;;;22.00;50.90;;;;;;6087095;23;20033;-64
2023/01/06 08:46:18;;;;;;;0.98;0.50;;;22.00;50.90;;;;;;6084227;23;20060;-65
2023/01/06 08:48:44;;;;;;;2.08;0.70;;;22.00;50.90;;;;;;6083783;23;20236;-65
2023/01/06 08:51:16;;;;;;;1.05;0.50;;;22.00;50.90;;;;;;6060566;23;20018;-64
2023/01/06 08:53:42;;;;;;;1.75;0.52;;;22.00;51.00;;;;;;6084322;23;20022;-65
2023/01/06 08:56:20;;;;;;;0.40;0.40;;;22.00;51.00;;;;;;6086672;23;20022;-63
2023/01/06 08:58:51;;;;;;;1.33;0.47;;;22.00;51.00;;;;;;6060516;23;20097;-64
2023/01/06 09:01:18;;;;;;;1.25;0.60;;;22.00;51.00;;;;;;6059813;23;20018;-63
2023/01/06 09:03:44;;;;;;;1.13;0.68;;;22.00;51.00;;;;;;6085005;23;20014;-63
2023/01/06 09:06:10;;;;;;;3.42;0.80;;;22.00;50.90;;;;;;6083167;23;20098;-62
2023/01/06 09:08:36;;;;;;;3.15;0.60;;;22.00;51.00;;;;;;6085147;23;20037;-62
2023/01/06 09:11:07;;;;;;;2.33;0.52;;;22.00;51.10;;;;;;6084312;23;20029;-62
2023/01/06 09:13:33;;;;;;;1.67;0.70;;;22.00;51.20;;;;;;6083598;23;20329;-61
2023/01/06 09:15:59;;;;;;;1.42;0.65;;;22.10;51.30;;;;;;6085016;23;20018;-62
2023/01/06 09:18:25;;;;;;;1.10;0.60;;;22.10;51.30;;;;;;6083108;23;20481;-62
2023/01/06 09:20:50;;;;;;;1.90;0.65;;;22.00;51.30;;;;;;6085851;23;20015;-61
2023/01/06 09:23:16;;;;;;;1.63;0.55;;;22.00;51.30;;;;;;6084797;23;20412;-62
2023/01/06 09:25:42;;;;;;;2.67;0.70;;;22.00;51.30;;;;;;6087373;23;20077;-61
2023/01/06 09:28:09;;;;;;;2.15;0.70;;;22.00;51.40;;;;;;6086132;23;20695;-61
2023/01/06 09:30:35;;;;;;;3.38;0.82;;;22.10;52.30;;;;;;6085625;23;20538;-61
2023/01/06 09:33:00;;;;;;;2.70;0.80;;;22.10;51.70;;;;;;6086086;23;20053;-61
2023/01/06 09:35:26;;;;;;;3.03;0.85;;;22.10;51.90;;;;;;6086512;23;20018;-61
2023/01/06 09:37:52;;;;;;;1.23;0.68;;;22.10;52.00;;;;;;6088386;23;20021;-61
2023/01/06 09:40:24;;;;;;;1.75;0.70;;;22.10;52.00;;;;;;6086753;23;20109;-61
2023/01/06 09:43:02;;;;;;;4.00;1.05;;;22.10;52.00;;;;;;6084283;23;20034;-60
2023/01/06 09:45:42;;;;;;;2.75;1.08;;;22.10;51.90;;;;;;6086723;23;20018;-62
2023/01/06 09:48:14;;;;;;;2.67;0.77;;;22.10;51.80;;;;;;6084661;23;20024;-61
2023/01/06 09:50:47;;;;;;;0.82;0.50;;;22.10;51.80;;;;;;6085414;23;20296;-61
2023/01/06 09:53:18;;;;;;;3.20;0.90;;;22.10;51.80;;;;;;6085659;23;20089;-63
2023/01/06 09:55:50;;;;;;;1.70;0.70;;;22.10;51.70;;;;;;6087419;23;20131;-61
2023/01/06 09:58:21;;;;;;;3.08;0.95;;;22.10;51.70;;;;;;6086729;23;20081;-60
2023/01/06 10:00:50;;;;;;;3.75;1.38;;;22.10;51.50;;;;;;6088326;23;20425;-61
2023/01/06 10:03:22;;;;;;;4.78;0.90;;;22.10;51.40;;;;;;6086335;23;20017;-60
2023/01/06 10:06:12;;;;;;;1.70;0.80;;;22.10;51.30;;;;;;6085293;23;20226;-61
2023/01/06 10:08:50;;;;;;;1.75;0.77;;;22.20;51.30;;;;;;6087344;23;20018;-61
2023/01/06 10:11:18;;;;;;;3.35;0.90;;;22.20;51.30;;;;;;6085285;23;20022;-63
2023/01/06 10:14:24;;;;;;;2.30;0.90;;;22.20;51.30;;;;;;6085278;23;20023;-61
2023/01/06 10:17:17;;;;;;;2.33;1.13;;;22.20;51.10;;;;;;6086595;23;20029;-60
2023/01/06 10:20:13;;;;;;;2.65;0.90;;;22.20;51.10;;;;;;6087736;23;20832;-60
2023/01/06 10:23:20;;;;;;;2.60;0.70;;;22.20;51.00;;;;;;6085082;23;20434;-60
2023/01/06 10:25:52;;;;;;;2.75;1.10;;;22.20;50.90;;;;;;6085745;23;20113;-60
2023/01/06 10:28:28;;;;;;;1.88;0.75;;;22.10;50.80;;;;;;6061498;23;20392;-61
2023/01/06 10:31:00;;;;;;;3.00;0.88;;;22.20;50.80;;;;;;6087424;23;20041;-60
2023/01/06 10:33:40;;;;;;;5.00;0.70;;;22.20;50.60;;;;;;6086876;23;20384;-61
2023/01/06 10:36:12;;;;;;;1.88;0.77;;;22.20;50.50;;;;;;6084818;23;20093;-61
2023/01/06 10:38:50;;;;;;;2.75;0.98;;;22.20;50.50;;;;;;6085545;23;20082;-61
2023/01/06 10:41:36;;;;;;;2.30;0.80;;;22.20;50.30;;;;;;6085789;23;20053;-61
2023/01/06 10:44:01;;;;;;;3.83;0.90;;;22.20;50.30;;;;;;6087560;23;20065;-61
2023/01/06 10:46:33;;;;;;;1.30;0.80;;;22.20;50.30;;;;;;6087487;23;20019;-62
2023/01/06 10:49:04;;;;;;;2.83;0.75;;;22.20;50.20;;;;;;6087136;23;20498;-61
2023/01/06 10:51:38;;;;;;;2.35;0.80;;;22.20;50.20;;;;;;6087530;23;20014;-61
2023/01/06 10:54:26;;;;;;;1.95;0.80;;;22.20;50.10;;;;;;6086854;23;20430;-61
2023/01/06 10:57:01;;;;;;;1.77;0.75;;;22.20;49.90;;;;;;6084795;23;20098;-62
2023/01/06 10:59:29;;;;;;;2.17;1.10;;;22.20;50.00;;;;;;6088099;23;20018;-60
2023/01/06 11:01:56;;;;;;;3.97;1.10;;;22.20;49.90;;;;;;6086471;23;20018;-62
2023/01/06 11:04:26;;;;;;;2.38;1.02;;;22.20;49.80;;;;;;6084248;23;20022;-63
2023/01/06 11:07:02;;;;;;;2.15;0.98;;;22.20;49.90;;;;;;6085587;23;20088;-61
2023/01/06 11:09:39;;;;;;;2.10;1.10;;;22.20;49.80;;;;;;6060577;23;20018;-61
2023/01/06 11:12:19;;;;;;;4.68;1.25;;;22.20;49.70;;;;;;6086558;23;20064;-61
2023/01/06 11:15:06;;;;;;;3.67;1.07;;;22.20;49.60;;;;;;6086950;23;20026;-62
2023/01/06 11:17:32;;;;;;;1.77;0.75;;;22.20;49.50;;;;;;6086293;23;20241;-61
2023/01/06 11:20:24;;;;;;;3.45;1.10;;;22.20;49.60;;;;;;6088044;23;20642;-62
2023/01/06 11:22:49;;;;;;;1.80;1.10;;;22.20;49.40;;;;;;6082719;23;20020;-60
2023/01/06 11:25:31;;;;;;;3.13;0.90;;;22.20;49.50;;;;;;6085579;23;20382;-61
2023/01/06 11:28:18;;;;;;;2.88;0.90;;;22.20;49.40;;;;;;6061848;23;20018;-60
2023/01/06 11:31:05;;;;;;;2.83;1.20;;;22.20;49.20;;;;;;6087646;23;20387;-62
2023/01/06 11:33:33;;;;;;;2.88;1.08;;;22.10;49.00;;;;;;6085504;23;20010;-59
2023/01/06 11:36:10;;;;;;;2.65;0.73;;;22.20;49.10;;;;;;6087139;23;20510;-62
2023/01/06 11:38:53;;;;;;;4.00;1.10;;;22.20;49.00;;;;;;6088297;23;20022;-66
2023/01/06 11:41:24;;;;;;;1.40;0.80;;;22.20;49.70;;;;;;6087569;23;20018;-65
2023/01/06 11:43:53;;;;;;;2.10;0.90;;;22.20;48.90;;;;;;6061921;23;20049;-66
2023/01/06 11:46:22;;;;;;;1.67;0.80;;;22.20;48.80;;;;;;6087017;23;20049;-63
2023/01/06 11:49:00;;;;;;;1.58;0.90;;;22.20;48.80;;;;;;6087872;23;20432;-64
2023/01/06 11:51:31;;;;;;;2.88;1.33;;;22.20;48.70;;;;;;6086813;23;20029;-64
2023/01/06 11:53:57;;;;;;;2.33;0.82;;;22.20;48.60;;;;;;6084994;23;20011;-65
2023/01/06 11:56:23;;;;;;;2.80;0.82;;;22.20;48.60;;;;;;6085666;23;20367;-65
2023/01/06 11:59:08;;;;;;;1.42;0.80;;;22.20;48.50;;;;;;6086901;23;20017;-62
2023/01/06 12:01:40;;;;;;;3.17;0.93;;;22.20;48.40;;;;;;6061410;23;20410;-64
2023/01/06 12:04:40;;;;;;;2.60;0.80;;;22.20;48.40;;;;;;6088920;23;20068;-63
2023/01/06 12:07:50;;;;;;;3.42;1.10;;;22.20;48.10;;;;;;6086808;23;20018;-64
2023/01/06 12:10:26;;;;;;;2.53;1.27;;;22.20;48.10;;;;;;6084805;23;20048;-65
2023/01/06 12:12:52;;;;;;;3.45;0.90;;;22.20;48.20;;;;;;6061696;23;20125;-63
2023/01/06 12:15:18;;;;;;;3.50;1.17;;;22.20;48.20;;;;;;6084748;23;20394;-66
2023/01/06 12:17:56;;;;;;;8.40;1.83;;;22.20;48.10;;;;;;6086074;23;20070;-64
2023/01/06 12:20:37;;;;;;;3.92;1.33;;;22.20;48.10;;;;;;6087340;23;20017;-64
2023/01/06 12:23:10;;;;;;;5.88;1.45;;;22.20;48.30;;;;;;6083579;23;20014;-63
2023/01/06 12:25:53;;;;;;;4.30;1.15;;;22.10;48.30;;;;;;5067541;27;20446;-55
2023/01/06 12:28:30;;;;;;;5.30;1.00;;;22.20;48.40;;;;;;5038689;28;20044;-56
2023/01/06 12:31:13;;;;;;;3.75;0.98;;;22.20;48.30;;;;;;5089724;28;20052;-57
2023/01/06 12:34:00;;;;;;;6.75;1.55;;;22.20;49.10;;;;;;5066715;28;20053;-57
2023/01/06 12:36:31;;;;;;;2.72;1.20;;;22.20;48.30;;;;;;5067478;28;20044;-59
2023/01/06 12:39:25;;;;;;;4.05;1.42;;;22.20;48.30;;;;;;5066680;28;20055;-58
2023/01/06 12:41:50;;;;;;;2.55;1.10;;;22.20;48.20;;;;;;5065200;28;20052;-56
2023/01/06 12:44:50;;;;;;;1.92;0.93;;;22.20;48.30;;;;;;5065630;28;20052;-56
2023/01/06 12:47:52;;;;;;;2.88;1.30;;;22.20;48.20;;;;;;5066762;28;20045;-56
2023/01/06 12:50:36;;;;;;;5.35;1.58;;;22.20;48.30;;;;;;5064624;28;20048;-56
2023/01/06 12:53:09;;;;;;;4.10;1.27;;;22.20;48.50;;;;;;5063699;28;20040;-55
2023/01/06 12:55:50;;;;;;;4.13;1.38;;;22.30;48.60;;;;;;5066747;28;20097;-57
2023/01/06 12:58:24;;;;;;;4.63;0.95;;;22.30;48.50;;;;;;5096194;28;20040;-56
2023/01/06 13:01:13;;;;;;;4.45;1.30;;;22.20;48.50;;;;;;5067358;28;20048;-57
2023/01/06 13:04:04;;;;;;;3.00;1.10;;;22.20;48.40;;;;;;5066478;28;20056;-59
2023/01/06 13:06:35;;;;;;;;;;;22.30;48.60;;;;;;5079423;28;20063;-56
2023/01/06 13:09:34;;;;;;;4.07;1.20;;;22.20;48.50;;;;;;5065127;28;19956;-56
2023/01/06 13:12:41;;;;;;;4.40;1.52;;;22.20;48.60;;;;;;5065320;28;20118;-57
2023/01/06 13:15:27;;;;;;;2.42;1.02;;;22.20;48.60;;;;;;5055369;28;20048;-56
2023/01/06 13:17:59;;;;;;;3.25;1.30;;;22.20;48.60;;;;;;5065622;28;20048;-59